createdAt,value
2018-02-02T00:01:36.755Z,76.10
2018-02-02T00:04:05.755Z,76.50
2018-02-02T00:06:34.712Z,76.50
2018-02-02T00:20:55.093Z,77.90
2018-02-02T00:23:23.977Z,77.90
2018-02-02T00:25:52.238Z,78.30
2018-02-02T00:28:20.382Z,78.90
2018-02-02T00:30:48.724Z,78.70
2018-02-02T00:33:17.694Z,78.80
2018-02-02T00:35:45.876Z,78.80
2018-02-02T00:38:14.100Z,79.00
2018-02-02T00:40:42.295Z,79.30
2018-02-02T00:43:10.488Z,79.50
2018-02-02T00:45:38.686Z,80.10
2018-02-02T00:48:07.687Z,80.70
2018-02-02T00:53:42.089Z,80.70
2018-02-02T00:56:10.284Z,80.70
2018-02-02T00:58:39.251Z,81.50
2018-02-02T01:01:07.452Z,81.50
2018-02-02T01:03:36.438Z,81.40
2018-02-02T01:06:05.426Z,81.40
2018-02-02T01:08:34.492Z,82.00
2018-02-02T01:11:02.692Z,82.00
2018-02-02T01:13:31.673Z,82.00
2018-02-02T01:15:59.853Z,82.00
2018-02-02T01:18:28.034Z,82.00
2018-02-02T01:20:57.048Z,81.90
2018-02-02T01:23:25.252Z,81.90
2018-02-02T01:25:53.435Z,81.90
2018-02-02T01:28:21.645Z,81.90
2018-02-02T01:30:50.584Z,82.00
2018-02-02T01:33:18.763Z,81.90
2018-02-02T01:35:47.325Z,82.40
2018-02-02T01:38:15.547Z,82.80
2018-02-02T01:40:43.751Z,82.90
2018-02-02T01:43:11.953Z,82.70
2018-02-02T01:45:40.524Z,82.00
2018-02-02T01:48:20.844Z,82.00
2018-02-02T01:50:50.884Z,81.90
2018-02-02T01:53:19.148Z,82.60
2018-02-02T01:55:48.196Z,83.50
2018-02-02T01:58:16.396Z,83.40
2018-02-02T02:00:44.597Z,84.60
2018-02-02T02:03:13.565Z,84.80
2018-02-02T02:05:41.765Z,84.80
2018-02-02T02:08:09.984Z,85.00
2018-02-02T02:10:38.193Z,84.80
2018-02-02T02:13:07.184Z,85.50
2018-02-02T02:15:36.182Z,85.90
2018-02-02T02:18:05.169Z,85.00
2018-02-02T02:20:34.174Z,85.70
2018-02-02T02:23:03.124Z,84.60
2018-02-02T02:25:31.342Z,84.70
2018-02-02T02:27:59.547Z,84.80
2018-02-02T02:30:27.751Z,85.20
2018-02-02T02:32:56.061Z,85.90
2018-02-02T02:35:24.247Z,85.30
2018-02-02T02:37:52.449Z,85.30
2018-02-02T02:40:20.673Z,85.00
2018-02-02T02:42:49.640Z,85.30
2018-02-02T02:45:17.856Z,85.20
2018-02-02T02:47:46.050Z,84.50
2018-02-02T02:50:14.400Z,84.60
2018-02-02T02:52:43.369Z,85.10
2018-02-02T02:55:11.644Z,85.20
2018-02-02T02:57:39.865Z,85.90
2018-02-02T03:00:08.051Z,86.40
2018-02-02T03:02:36.249Z,86.70
2018-02-02T03:05:04.472Z,87.40
2018-02-02T03:07:33.284Z,87.70
2018-02-02T03:10:01.709Z,87.50
2018-02-02T03:12:29.912Z,87.60
2018-02-02T03:14:58.123Z,87.40
2018-02-02T03:17:26.452Z,87.50
2018-02-02T03:19:55.480Z,88.00
2018-02-02T03:22:23.704Z,87.10
2018-02-02T03:24:51.904Z,87.40
2018-02-02T03:27:20.108Z,88.10
2018-02-02T03:29:48.336Z,87.40
2018-02-02T03:32:17.832Z,87.10
2018-02-02T03:34:46.778Z,87.50
2018-02-02T03:37:15.016Z,87.50
2018-02-02T03:39:43.193Z,87.50
2018-02-02T03:42:11.373Z,87.50
2018-02-02T03:44:39.644Z,87.70
2018-02-02T03:47:07.856Z,88.30
2018-02-02T03:49:36.052Z,88.70
2018-02-02T03:52:04.300Z,88.40
2018-02-02T03:54:32.474Z,88.30
2018-02-02T03:57:00.720Z,88.20
2018-02-02T03:59:28.917Z,88.00
2018-02-02T04:01:57.129Z,88.20
2018-02-02T04:04:25.338Z,88.00
2018-02-02T04:06:53.508Z,88.10
2018-02-02T04:09:21.698Z,88.50
2018-02-02T04:11:49.920Z,88.50
2018-02-02T04:14:18.106Z,88.70
2018-02-02T04:16:47.156Z,88.40
2018-02-02T04:19:15.320Z,88.30
2018-02-02T04:21:43.872Z,88.50
2018-02-02T04:24:12.088Z,88.40
2018-02-02T04:26:40.268Z,89.00
2018-02-02T04:29:08.505Z,89.30
2018-02-02T04:31:36.756Z,89.30
2018-02-02T04:34:05.728Z,90.00
2018-02-02T04:36:33.959Z,90.00
2018-02-02T04:39:02.141Z,90.00
2018-02-02T04:41:30.364Z,89.80
2018-02-02T04:43:59.352Z,89.70
2018-02-02T04:46:28.321Z,89.60
2018-02-02T04:48:56.522Z,89.60
2018-02-02T04:51:25.508Z,90.50
2018-02-02T04:53:54.472Z,90.40
2018-02-02T04:56:22.676Z,90.40
2018-02-02T04:58:51.655Z,90.30
2018-02-02T05:01:19.872Z,90.20
2018-02-02T05:03:48.062Z,90.30
2018-02-02T05:06:16.261Z,90.20
2018-02-02T05:08:44.464Z,90.30
2018-02-02T05:11:13.624Z,90.60
2018-02-02T05:13:41.820Z,90.60
2018-02-02T05:16:10.221Z,90.70
2018-02-02T05:18:38.434Z,90.80
2018-02-02T05:21:06.609Z,90.80
2018-02-02T05:23:34.833Z,90.70
2018-02-02T05:26:03.816Z,90.30
2018-02-02T05:28:32.780Z,90.30
2018-02-02T05:31:00.980Z,90.30
2018-02-02T05:33:29.156Z,90.30
2018-02-02T05:35:58.157Z,90.50
2018-02-02T05:38:27.148Z,90.60
2018-02-02T05:40:56.143Z,90.30
2018-02-02T05:43:25.088Z,90.20
2018-02-02T05:45:53.288Z,90.20
2018-02-02T05:48:21.501Z,90.10
2018-02-02T05:50:49.674Z,89.70
2018-02-02T05:53:17.891Z,89.60
2018-02-02T05:55:46.101Z,88.80
2018-02-02T05:58:15.064Z,88.30
2018-02-02T06:00:43.281Z,88.30
2018-02-02T06:03:11.484Z,88.30
2018-02-02T06:05:39.684Z,88.10
2018-02-02T06:08:07.904Z,87.30
2018-02-02T06:10:36.080Z,87.50
2018-02-02T06:13:04.281Z,86.90
2018-02-02T06:15:32.508Z,88.70
2018-02-02T06:18:01.478Z,86.70
2018-02-02T06:20:30.233Z,86.70
2018-02-02T06:22:58.929Z,86.40
2018-02-02T06:25:27.108Z,86.00
2018-02-02T06:27:55.330Z,86.00
2018-02-02T06:30:23.549Z,86.50
2018-02-02T06:32:51.723Z,85.60
2018-02-02T06:35:19.925Z,85.70
2018-02-02T06:37:48.916Z,85.70
2018-02-02T06:40:17.889Z,86.00
2018-02-02T06:42:46.095Z,85.00
2018-02-02T06:45:15.046Z,84.50
2018-02-02T06:47:43.413Z,84.50
2018-02-02T06:50:11.613Z,84.00
2018-02-02T06:52:39.818Z,84.80
2018-02-02T06:55:08.027Z,84.70
2018-02-02T06:57:36.228Z,83.50
2018-02-02T07:00:04.434Z,83.00
2018-02-02T07:02:33.377Z,82.40
2018-02-02T07:05:01.580Z,82.40
2018-02-02T07:07:29.832Z,82.40
2018-02-02T07:09:58.036Z,82.40
2018-02-02T07:12:27.012Z,82.40
2018-02-02T07:14:55.213Z,82.40
2018-02-02T07:17:24.205Z,82.30
2018-02-02T07:19:53.181Z,82.50
2018-02-02T07:22:21.384Z,82.50
2018-02-02T07:24:49.568Z,82.20
2018-02-02T07:27:17.781Z,81.90
2018-02-02T07:29:45.962Z,80.40
2018-02-02T07:32:14.160Z,80.40
2018-02-02T07:34:43.139Z,78.60
2018-02-02T07:37:11.320Z,78.60
2018-02-02T07:39:39.493Z,78.40
2018-02-02T07:42:08.487Z,78.00
2018-02-02T07:44:37.671Z,77.30
2018-02-02T07:47:05.940Z,77.30
2018-02-02T07:49:34.225Z,75.60
2018-02-02T07:52:02.499Z,76.50
2018-02-02T07:54:31.476Z,76.00
2018-02-02T07:56:59.687Z,75.90
2018-02-02T07:59:27.908Z,75.90
2018-02-02T08:01:56.116Z,76.00
2018-02-02T08:04:25.097Z,75.70
2018-02-02T08:06:53.298Z,75.70
2018-02-02T08:09:21.486Z,75.80
2018-02-02T08:11:49.704Z,77.10
2018-02-02T08:14:17.913Z,76.80
2018-02-02T08:16:46.908Z,76.40
2018-02-02T08:19:15.867Z,76.70
2018-02-02T08:21:44.051Z,76.70
2018-02-02T08:24:12.348Z,76.10
2018-02-02T08:26:41.312Z,75.40
2018-02-02T08:29:09.504Z,75.30
2018-02-02T08:31:38.472Z,73.80
2018-02-02T08:34:06.658Z,73.70
2018-02-02T08:36:35.056Z,73.20
2018-02-02T08:39:04.021Z,71.50
2018-02-02T08:41:32.197Z,71.50
2018-02-02T08:44:00.398Z,70.40
2018-02-02T08:46:29.361Z,70.00
2018-02-02T08:48:57.578Z,70.00
2018-02-02T08:51:25.897Z,69.80
2018-02-02T08:53:54.306Z,69.00
2018-02-02T08:56:23.280Z,67.20
2018-02-02T08:58:51.460Z,67.20
2018-02-02T09:01:25.372Z,68.10
2018-02-02T09:03:54.401Z,66.60
2018-02-02T09:06:22.596Z,66.60
2018-02-02T09:08:50.819Z,66.60
2018-02-02T09:11:19.779Z,65.20
2018-02-02T09:13:48.173Z,65.10
2018-02-02T09:16:16.348Z,65.10
2018-02-02T09:18:44.524Z,64.80
2018-02-02T09:21:12.749Z,65.80
2018-02-02T09:23:40.960Z,65.70
2018-02-02T09:26:09.988Z,64.90
2018-02-02T09:28:38.189Z,64.90
2018-02-02T09:31:06.635Z,63.90
2018-02-02T09:33:34.843Z,64.80
2018-02-02T09:36:03.048Z,63.80
2018-02-02T09:38:31.356Z,62.40
2018-02-02T09:41:00.308Z,59.70
2018-02-02T09:43:28.548Z,59.70
2018-02-02T09:45:56.761Z,59.40
2018-02-02T09:48:24.950Z,59.40
2018-02-02T09:50:53.172Z,58.40
2018-02-02T09:53:21.377Z,57.90
2018-02-02T09:55:49.565Z,58.70
2018-02-02T09:58:17.789Z,58.20
2018-02-02T10:00:45.965Z,57.90
2018-02-02T10:03:14.251Z,56.00
2018-02-02T10:05:42.486Z,57.10
2018-02-02T10:08:11.437Z,56.40
2018-02-02T10:10:39.617Z,56.40
2018-02-02T10:13:07.838Z,57.20
2018-02-02T10:15:36.040Z,56.40
2018-02-02T10:18:04.927Z,55.70
2018-02-02T10:20:33.138Z,55.20
2018-02-02T10:23:02.057Z,55.50
2018-02-02T10:25:30.267Z,54.80
2018-02-02T10:27:58.472Z,54.60
2018-02-02T10:30:26.877Z,52.10
2018-02-02T10:32:55.064Z,52.30
2018-02-02T10:35:23.785Z,53.40
2018-02-02T10:37:52.112Z,52.80
2018-02-02T10:40:20.321Z,51.20
2018-02-02T10:42:48.508Z,50.80
2018-02-02T10:45:16.737Z,50.80
2018-02-02T10:47:44.961Z,50.70
2018-02-02T10:50:13.160Z,51.70
2018-02-02T10:52:41.400Z,53.30
2018-02-02T10:55:09.608Z,52.70
2018-02-02T10:57:38.589Z,54.70
2018-02-02T11:00:06.815Z,53.10
2018-02-02T11:02:40.552Z,52.30
2018-02-02T11:05:08.756Z,51.40
2018-02-02T11:07:37.744Z,52.20
2018-02-02T11:10:06.745Z,51.90
2018-02-02T11:12:35.717Z,50.60
2018-02-02T11:15:03.916Z,50.60
2018-02-02T11:17:32.904Z,49.90
2018-02-02T11:20:01.885Z,48.10
2018-02-02T11:22:30.889Z,45.70
2018-02-02T11:24:59.177Z,45.70
2018-02-02T11:27:27.572Z,45.50
2018-02-02T11:29:55.801Z,45.30
2018-02-02T11:32:23.990Z,44.70
2018-02-02T11:34:52.981Z,46.40
2018-02-02T11:37:21.940Z,46.20
2018-02-02T11:39:50.176Z,46.10
2018-02-02T11:42:18.369Z,45.40
2018-02-02T11:44:46.556Z,46.10
2018-02-02T11:47:14.765Z,46.60
2018-02-02T11:49:43.772Z,47.20
2018-02-02T11:52:11.982Z,47.00
2018-02-02T11:54:40.177Z,47.50
2018-02-02T11:57:08.380Z,47.30
2018-02-02T11:59:37.329Z,49.20
2018-02-02T12:02:05.535Z,49.20
2018-02-02T12:04:33.735Z,50.70
2018-02-02T12:07:01.964Z,47.90
2018-02-02T12:09:30.173Z,49.10
2018-02-02T12:11:59.131Z,48.60
2018-02-02T12:14:27.533Z,48.60
2018-02-02T12:16:56.506Z,49.70
2018-02-02T12:19:24.738Z,49.60
2018-02-02T12:21:56.253Z,49.70
2018-02-02T12:27:50.173Z,50.40
2018-02-02T12:33:36.180Z,50.10
2018-02-02T12:36:09.873Z,51.40
2018-02-02T12:38:38.544Z,52.60
2018-02-02T12:41:07.490Z,52.90
2018-02-02T12:43:35.725Z,52.80
2018-02-02T12:46:03.911Z,51.80
2018-02-02T12:48:41.176Z,52.30
2018-02-02T12:51:16.943Z,51.80
2018-02-02T12:53:45.150Z,51.80
2018-02-02T12:56:13.353Z,51.00
2018-02-02T12:58:41.656Z,50.50
2018-02-02T13:01:09.868Z,50.50
2018-02-02T13:03:38.054Z,50.60
2018-02-02T13:06:06.272Z,50.60
2018-02-02T13:08:35.256Z,50.70
2018-02-02T13:11:05.083Z,50.90
2018-02-02T13:13:33.277Z,50.80
2018-02-02T13:16:01.504Z,50.60
2018-02-02T13:18:29.806Z,50.80
2018-02-02T13:20:58.209Z,50.10
2018-02-02T13:23:26.436Z,49.80
2018-02-02T13:25:55.429Z,49.90
2018-02-02T13:28:24.377Z,50.90
2018-02-02T13:30:52.585Z,50.80
2018-02-02T13:33:21.616Z,50.30
2018-02-02T13:35:49.832Z,50.50
2018-02-02T13:38:18.140Z,48.90
2018-02-02T13:40:47.128Z,49.90
2018-02-02T13:43:16.100Z,49.50
2018-02-02T13:45:44.654Z,49.40
2018-02-02T13:48:13.097Z,50.30
2018-02-02T13:50:41.318Z,50.80
2018-02-02T13:53:09.521Z,49.70
2018-02-02T13:55:37.725Z,48.70
2018-02-02T13:58:05.945Z,50.40
2018-02-02T14:00:34.153Z,50.50
2018-02-02T14:03:03.201Z,50.60
2018-02-02T14:05:31.421Z,50.60
2018-02-02T14:08:00.388Z,51.30
2018-02-02T14:10:28.608Z,51.20
2018-02-02T14:12:56.832Z,50.70
2018-02-02T14:15:25.044Z,50.90
2018-02-02T14:17:54.001Z,50.60
2018-02-02T14:20:22.205Z,50.60
2018-02-02T14:22:51.184Z,51.30
2018-02-02T14:25:20.072Z,51.20
2018-02-02T14:27:48.344Z,51.90
2018-02-02T14:30:16.532Z,50.60
2018-02-02T14:32:45.508Z,52.60
2018-02-02T14:35:13.815Z,52.60
2018-02-02T14:37:42.010Z,53.60
2018-02-02T14:40:10.433Z,52.50
2018-02-02T14:42:38.701Z,52.60
2018-02-02T14:45:06.910Z,53.20
2018-02-02T14:47:35.123Z,52.50
2018-02-02T14:50:03.368Z,52.90
2018-02-02T14:52:31.572Z,53.60
2018-02-02T14:54:59.780Z,53.20
2018-02-02T14:57:28.741Z,53.30
2018-02-02T14:59:56.924Z,54.10
2018-02-02T15:02:25.145Z,55.30
2018-02-02T15:04:54.113Z,57.70
2018-02-02T15:07:22.321Z,57.60
2018-02-02T15:09:50.591Z,58.20
2018-02-02T15:12:18.862Z,59.40
2018-02-02T15:14:47.248Z,60.70
2018-02-02T15:17:15.449Z,61.30
2018-02-02T15:19:43.628Z,61.70
2018-02-02T15:22:12.584Z,61.60
2018-02-02T15:24:40.788Z,62.60
2018-02-02T15:27:08.977Z,62.50
2018-02-02T15:29:37.212Z,62.70
2018-02-02T15:32:05.419Z,63.60
2018-02-02T15:34:33.601Z,64.00
2018-02-02T15:37:01.906Z,64.80
2018-02-02T15:39:30.882Z,65.90
2018-02-02T15:41:59.192Z,65.90
2018-02-02T15:44:27.408Z,66.30
2018-02-02T15:46:55.600Z,66.50
2018-02-02T15:49:23.806Z,67.40
2018-02-02T15:51:52.882Z,70.30
2018-02-02T15:54:21.165Z,70.10
2018-02-02T15:56:49.395Z,71.40
2018-02-02T15:59:17.632Z,74.30
2018-02-02T16:01:45.812Z,74.40
2018-02-02T16:04:14.029Z,75.90
2018-02-02T16:06:42.231Z,75.60
2018-02-02T16:09:10.449Z,74.40
2018-02-02T16:11:38.629Z,75.40
2018-02-02T16:14:06.869Z,75.00
2018-02-02T16:16:36.049Z,74.40
2018-02-02T16:19:05.034Z,74.40
2018-02-02T16:21:33.220Z,75.30
2018-02-02T16:24:02.190Z,75.60
2018-02-02T16:26:31.048Z,75.50
2018-02-02T16:28:59.249Z,75.40
2018-02-02T16:31:27.456Z,75.40
2018-02-02T16:33:55.696Z,75.70
2018-02-02T16:36:23.877Z,75.90
2018-02-02T16:38:52.057Z,76.90
2018-02-02T16:41:20.288Z,77.80
2018-02-02T16:43:48.483Z,78.60
2018-02-02T16:46:16.709Z,80.80
2018-02-02T16:48:44.971Z,80.50
2018-02-02T16:51:13.960Z,82.20
2018-02-02T16:53:43.009Z,82.20
2018-02-02T16:56:11.287Z,82.50
2018-02-02T16:58:40.399Z,84.00
2018-02-02T17:01:08.581Z,84.00
2018-02-02T17:03:36.857Z,83.80
2018-02-02T17:06:05.055Z,84.80
2018-02-02T17:08:33.241Z,84.30
2018-02-02T17:11:01.449Z,83.80
2018-02-02T17:13:30.177Z,84.60
2018-02-02T17:15:59.129Z,84.00
2018-02-02T17:18:27.470Z,84.00
2018-02-02T17:20:55.684Z,84.80
2018-02-02T17:23:23.889Z,86.00
2018-02-02T17:25:52.876Z,86.10
2018-02-02T17:28:21.076Z,86.90
2018-02-02T17:30:49.287Z,86.40
2018-02-02T17:33:17.484Z,88.80
2018-02-02T17:35:46.384Z,89.10
2018-02-02T17:38:14.590Z,89.80
2018-02-02T17:40:42.833Z,89.90
2018-02-02T17:43:11.077Z,88.90
2018-02-02T17:45:39.281Z,89.40
2018-02-02T17:48:07.578Z,90.30
2018-02-02T17:50:36.545Z,89.40
2018-02-02T17:53:04.777Z,89.40
2018-02-02T17:55:33.002Z,90.00
2018-02-02T17:58:01.996Z,88.90
2018-02-02T18:00:34.328Z,89.10
2018-02-02T18:03:07.713Z,89.10
2018-02-02T18:05:36.031Z,89.80
2018-02-02T18:08:04.262Z,89.30
2018-02-02T18:10:32.449Z,90.00
2018-02-02T18:13:00.649Z,89.70
2018-02-02T18:15:28.859Z,89.70
2018-02-02T18:17:57.077Z,89.70
2018-02-02T18:20:25.253Z,88.90
2018-02-02T18:22:53.472Z,88.70
2018-02-02T18:25:22.290Z,88.40
2018-02-02T18:27:50.480Z,87.10
2018-02-02T18:30:18.714Z,87.50
2018-02-02T18:32:46.920Z,86.50
2018-02-02T18:35:15.149Z,86.00
2018-02-02T18:37:43.357Z,86.10
2018-02-02T18:40:11.553Z,86.30
2018-02-02T18:42:40.029Z,86.30
2018-02-02T18:45:08.260Z,86.90
2018-02-02T18:47:36.470Z,87.00
2018-02-02T18:50:04.684Z,86.90
2018-02-02T18:52:33.772Z,85.80
2018-02-02T18:55:01.973Z,85.80
2018-02-02T18:57:30.248Z,86.10
2018-02-02T19:00:09.684Z,85.70
2018-02-02T19:02:37.867Z,86.60
2018-02-02T19:05:06.137Z,86.60
2018-02-02T19:07:34.388Z,85.70
2018-02-02T19:10:03.404Z,86.60
2018-02-02T19:12:31.604Z,86.60
2018-02-02T19:14:59.802Z,87.40
2018-02-02T19:17:28.028Z,88.00
2018-02-02T19:19:56.205Z,89.30
2018-02-02T19:22:24.448Z,89.20
2018-02-02T19:24:52.621Z,89.40
2018-02-02T19:27:20.942Z,89.50
2018-02-02T19:29:49.125Z,88.60
2018-02-02T19:32:17.334Z,89.60
2018-02-02T19:34:45.649Z,89.50
2018-02-02T19:37:13.881Z,90.00
2018-02-02T19:39:42.223Z,88.00
2018-02-02T19:42:10.422Z,90.00
2018-02-02T19:44:38.613Z,89.60
2018-02-02T19:47:06.824Z,87.90
2018-02-02T19:49:35.001Z,89.00
2018-02-02T19:52:03.201Z,88.70
2018-02-02T19:54:31.528Z,88.90
2018-02-02T19:57:02.483Z,87.80
2018-02-02T19:59:30.680Z,87.80
2018-02-02T20:01:58.922Z,88.30
2018-02-02T20:04:27.128Z,87.30
2018-02-02T20:06:55.348Z,87.90
2018-02-02T20:09:24.337Z,87.90
2018-02-02T20:11:53.348Z,87.90
2018-02-02T20:14:22.342Z,87.20
2018-02-02T20:16:51.300Z,86.10
2018-02-02T20:19:19.502Z,86.20
2018-02-02T20:21:48.676Z,86.10
2018-02-02T20:24:16.857Z,86.30
2018-02-02T20:26:45.037Z,86.40
2018-02-02T20:29:14.028Z,85.60
2018-02-02T20:31:43.025Z,86.10
2018-02-02T20:34:11.997Z,86.00
2018-02-02T20:36:40.248Z,85.90
2018-02-02T20:39:08.435Z,87.50
2018-02-02T20:41:36.632Z,86.70
2018-02-02T20:44:05.617Z,86.60
2018-02-02T20:46:33.819Z,86.70
2018-02-02T20:49:02.021Z,87.70
2018-02-02T20:51:30.338Z,87.30
2018-02-02T20:53:58.513Z,88.70
2018-02-02T20:56:26.701Z,89.50
2018-02-02T20:58:56.105Z,90.40
2018-02-02T21:01:25.120Z,90.50
2018-02-02T21:03:54.104Z,90.50
2018-02-02T21:06:22.328Z,90.10
2018-02-02T21:08:50.519Z,90.30
2018-02-02T21:11:18.721Z,90.30
2018-02-02T21:13:46.928Z,90.40
2018-02-02T21:16:15.136Z,90.40
2018-02-02T21:18:43.430Z,90.70
2018-02-02T21:21:12.403Z,90.50
2018-02-02T21:23:40.604Z,90.50
2018-02-02T21:26:09.036Z,90.70
2018-02-02T21:28:37.248Z,90.80
2018-02-02T21:31:06.197Z,91.80
2018-02-02T21:33:34.379Z,91.80
2018-02-02T21:36:02.612Z,92.00
2018-02-02T21:38:30.838Z,92.50
2018-02-02T21:40:59.073Z,92.80
2018-02-02T21:43:27.272Z,92.80
2018-02-02T21:45:55.485Z,92.80
2018-02-02T21:48:24.438Z,92.80
2018-02-02T21:50:52.619Z,92.80
2018-02-02T21:53:21.317Z,93.00
2018-02-02T21:55:49.509Z,92.80
2018-02-02T21:58:18.479Z,92.60
2018-02-02T22:00:47.088Z,92.60
2018-02-02T22:03:15.321Z,92.40
2018-02-02T22:05:43.521Z,92.10
2018-02-02T22:08:12.493Z,92.40
2018-02-02T22:10:40.693Z,92.40
2018-02-02T22:13:09.632Z,91.90
2018-02-02T22:15:37.852Z,91.90
2018-02-02T22:18:06.830Z,91.60
2018-02-02T22:20:35.054Z,91.70
2018-02-02T22:23:03.253Z,92.10
2018-02-02T22:25:31.582Z,92.00
2018-02-02T22:27:59.785Z,91.80
2018-02-02T22:30:28.560Z,91.80
2018-02-02T22:32:56.923Z,91.70
2018-02-02T22:35:25.104Z,91.60
2018-02-02T22:37:53.313Z,91.30
2018-02-02T22:40:21.540Z,91.20
2018-02-02T22:42:49.733Z,91.20
2018-02-02T22:45:17.914Z,91.30
2018-02-02T22:47:46.141Z,91.60
2018-02-02T22:50:15.115Z,91.60
2018-02-02T22:52:43.736Z,91.60
2018-02-02T22:55:12.704Z,91.20
2018-02-02T22:57:40.904Z,91.30
2018-02-02T23:00:09.859Z,91.10
2018-02-02T23:02:38.145Z,91.10
2018-02-02T23:05:06.328Z,91.10
2018-02-02T23:07:35.277Z,90.90
2018-02-02T23:10:03.504Z,90.90
2018-02-02T23:12:32.478Z,91.00
2018-02-02T23:15:01.447Z,91.20
2018-02-02T23:17:29.690Z,91.20
2018-02-02T23:19:57.944Z,91.40
2018-02-02T23:22:26.172Z,91.60
2018-02-02T23:24:55.184Z,91.70
2018-02-02T23:27:23.421Z,91.70
2018-02-02T23:29:51.598Z,91.60
2018-02-02T23:32:19.810Z,91.90
2018-02-02T23:34:48.804Z,92.00
2018-02-02T23:37:18.008Z,92.00
2018-02-02T23:39:46.957Z,91.80
2018-02-02T23:42:15.176Z,91.80
2018-02-02T23:44:44.273Z,92.00
2018-02-02T23:47:13.240Z,91.90
2018-02-02T23:49:41.449Z,91.90
2018-02-02T23:52:09.653Z,92.00
2018-02-02T23:54:37.893Z,91.50
2018-02-02T23:57:06.100Z,91.60
2018-02-02T23:59:34.620Z,91.70
